Campanya meteocatpedra

Dades de l'estació automàtica Benissanet

?
?
Resum diari 21:00 TU
Dades diàries de l'estació meteorològica
Temperatura mitjana 25.8 °C
Temperatura màxima 30.8 °C 11:38 TU
Temperatura mínima 22.7 °C 3:30 TU
Humitat relativa mitjana 63%
Precipitació acumulada 0.0 mm
Ratxa màxima del vent (10 m) 40.7 km/h - 167º 14:38 TU
Irradiació solar global 28.1 MJ/m2

El tram horari està expressat en Temps Universal (TU). Cal sumar una hora en horari d'hivern i dues en horari d'estiu per passar a l'hora oficial.

Benissanet

Metadades estació meteorol´gica
Municipi Benissanet
Comarca Ribera d'Ebre
Altitud 32 m
Data alta 14.07.1993
Estat actual Operativa
Dades de període
Període
TU
TM
°C
TX
°C
TN
°C
HRM
%
PPT
mm
VVM (10 m)
km/h
DVM (10 m)
graus
VVX (10 m)
km/h
RS
W/m2
00:00 - 00:30 23.1 23.2 23.0 72 0.0 11.2 174 18.4 0
00:30 - 01:00 23.0 23.0 22.9 72 0.0 13.3 168 20.9 0
01:00 - 01:30 22.9 23.0 22.9 72 0.0 15.8 164 24.1 0
01:30 - 02:00 22.9 22.9 22.8 72 0.0 13.0 165 20.9 0
02:00 - 02:30 22.8 22.9 22.8 72 0.0 9.0 170 17.6 0
02:30 - 03:00 22.8 22.8 22.7 73 0.0 7.2 179 13.3 0
03:00 - 03:30 22.8 22.8 22.7 74 0.0 6.8 176 13.3 0
03:30 - 04:00 22.8 22.8 22.7 74 0.0 4.3 195 10.1 0
04:00 - 04:30 22.9 22.9 22.8 73 0.0 5.8 180 10.4 0
04:30 - 05:00 22.9 22.9 22.8 72 0.0 2.2 190 9.0 3
05:00 - 05:30 22.8 22.9 22.8 73 0.0 3.6 240 6.5 18
05:30 - 06:00 23.0 23.1 22.9 73 0.0 4.3 229 7.9 62
06:00 - 06:30 23.3 24.0 23.1 71 0.0 4.3 220 9.4 151
06:30 - 07:00 24.2 24.5 23.9 68 0.0 6.5 202 12.2 293
07:00 - 07:30 24.9 25.5 24.4 67 0.0 7.6 213 14.0 383
07:30 - 08:00 25.6 26.5 25.1 64 0.0 6.5 245 11.9 431
08:00 - 08:30 26.9 27.4 26.5 58 0.0 3.2 273 10.4 507
08:30 - 09:00 27.5 28.5 26.6 53 0.0 2.2 211 8.6 603
09:00 - 09:30 28.1 28.6 27.9 50 0.0 6.5 118 14.8 758
09:30 - 10:00 28.8 29.9 28.2 49 0.0 5.0 137 11.9 848
10:00 - 10:30 29.2 30.0 28.7 49 0.0 6.1 159 15.8 657
10:30 - 11:00 29.5 30.2 28.8 49 0.0 10.1 164 20.2 877
11:00 - 11:30 29.9 30.4 29.4 49 0.0 13.0 155 25.2 985
11:30 - 12:00 30.1 30.8 29.4 49 0.0 14.8 159 29.5 774
12:00 - 12:30 28.8 29.8 28.1 55 0.0 20.5 162 33.1 555
12:30 - 13:00 28.2 28.7 27.7 57 0.0 23.0 162 33.8 730
13:00 - 13:30 28.0 28.4 27.8 58 0.0 25.9 160 38.5 919
13:30 - 14:00 28.3 28.7 28.0 58 0.0 22.7 157 37.4 923
14:00 - 14:30 28.3 28.5 27.9 58 0.0 20.9 155 37.8 865
14:30 - 15:00 28.1 28.6 27.7 59 0.0 21.2 159 40.7 764
15:00 - 15:30 27.9 28.3 27.6 59 0.0 18.4 155 33.1 763
15:30 - 16:00 27.7 28.0 27.3 60 0.0 19.4 157 34.6 669
16:00 - 16:30 27.7 28.1 27.4 59 0.0 19.4 158 30.6 574
16:30 - 17:00 27.4 27.7 27.1 59 0.0 19.1 153 35.6 470
17:00 - 17:30 27.3 27.5 27.0 60 0.0 17.6 154 28.1 391
17:30 - 18:00 27.1 27.4 26.9 60 0.0 16.2 157 28.8 323
18:00 - 18:30 26.7 27.3 26.4 62 0.0 15.8 161 25.9 193
18:30 - 19:00 25.9 26.4 25.5 63 0.0 18.0 163 29.2 99
19:00 - 19:30 25.0 25.4 24.6 65 0.0 17.3 161 27.4 27
19:30 - 20:00 24.3 24.6 24.0 67 0.0 13.7 160 23.0 0
20:00 - 20:30 23.9 24.0 23.7 68 0.0 11.5 156 21.6 0
20:30 - 21:00 23.7 23.9 23.5 68 0.0 9.4 174 16.2 0
21:00 - 21:30 23.4 23.6 23.3 70 0.0 10.1 170 18.0 0
21:30 - 22:00 23.3 23.4 23.2 71 0.0 9.4 174 18.0 0

Les dades en taronja només han passat un control de qualitat automàtic. Resta pendent la seva validació definitiva.